createdAt,value
2019-01-10T00:06:01.619Z,82.32
2019-01-10T00:16:01.638Z,82.41
2019-01-10T00:26:01.661Z,81.84
2019-01-10T00:41:01.597Z,81.9
2019-01-10T00:56:02.926Z,83.38
2019-01-10T01:11:01.814Z,83.01
2019-01-10T01:26:02.724Z,83.87
2019-01-10T01:41:01.598Z,84.14
2019-01-10T01:51:01.722Z,84.44
2019-01-10T02:01:01.922Z,84.65
2019-01-10T02:16:01.893Z,84.73
2019-01-10T02:31:01.674Z,85.07
2019-01-10T02:36:01.604Z,84.91
2019-01-10T02:51:01.721Z,84.88
2019-01-10T03:06:01.606Z,85.98
2019-01-10T03:16:01.994Z,87.46
2019-01-10T03:26:02.549Z,88.71
2019-01-10T03:31:01.747Z,88.71
2019-01-10T03:36:01.524Z,89.62
2019-01-10T03:46:01.585Z,90.34
2019-01-10T03:51:01.604Z,90.34
2019-01-10T04:01:01.660Z,90.68
2019-01-10T04:06:01.558Z,91.0
2019-01-10T04:16:01.712Z,91.21
2019-01-10T04:31:01.598Z,91.42
2019-01-10T04:41:01.657Z,91.9
2019-01-10T04:56:02.929Z,92.19
2019-01-10T05:11:01.718Z,91.72
2019-01-10T05:21:01.630Z,91.91
2019-01-10T05:31:01.649Z,92.53
2019-01-10T05:46:02.775Z,93.17
2019-01-10T06:01:01.652Z,93.03
2019-01-10T06:06:01.795Z,93.32
2019-01-10T06:21:01.694Z,93.13
2019-01-10T06:26:01.533Z,93.66
2019-01-10T06:31:01.597Z,93.66
2019-01-10T06:36:01.546Z,93.19
2019-01-10T06:46:01.679Z,93.35
2019-01-10T06:51:01.508Z,93.35
2019-01-10T07:01:01.660Z,93.67
2019-01-10T07:16:01.679Z,93.94
2019-01-10T07:31:01.502Z,94.46
2019-01-10T07:36:01.947Z,94.77
2019-01-10T07:46:01.681Z,94.7
2019-01-10T07:51:01.728Z,94.7
2019-01-10T08:06:01.705Z,94.84
2019-01-10T08:11:01.672Z,94.84
2019-01-10T08:16:01.679Z,94.42
2019-01-10T08:21:01.672Z,94.42
2019-01-10T08:26:01.767Z,94.12
2019-01-10T08:36:01.811Z,93.93
2019-01-10T08:41:01.677Z,93.93
2019-01-10T08:46:01.816Z,93.85
2019-01-10T08:56:01.692Z,93.21
2019-01-10T09:12:01.667Z,93.62
2019-01-10T09:22:01.707Z,93.23
2019-01-10T09:32:01.771Z,92.25
2019-01-10T09:47:01.739Z,92.13
2019-01-10T10:03:01.729Z,91.61
2019-01-10T10:13:01.804Z,91.64
2019-01-10T10:23:01.636Z,90.83
2019-01-10T10:38:01.684Z,90.77
2019-01-10T10:48:01.751Z,91.11
2019-01-10T10:53:01.748Z,90.87
2019-01-10T11:03:01.680Z,90.02
2019-01-10T11:18:01.703Z,90.91
2019-01-10T11:33:01.800Z,90.16
2019-01-10T11:48:01.713Z,91.0
2019-01-10T12:03:01.719Z,90.79
2019-01-10T12:13:01.704Z,90.48
2019-01-10T12:18:01.776Z,90.48
2019-01-10T12:33:01.785Z,89.91
2019-01-10T12:38:01.961Z,89.91
2019-01-10T12:48:02.181Z,89.07
2019-01-10T13:03:01.678Z,89.04
2019-01-10T13:18:01.767Z,88.46
2019-01-10T13:23:01.775Z,88.81
2019-01-10T13:33:01.743Z,88.92
2019-01-10T13:48:01.775Z,89.41
2019-01-10T13:53:01.713Z,89.5
2019-01-10T14:03:01.694Z,89.69
2019-01-10T14:18:01.728Z,89.7
2019-01-10T14:33:01.704Z,89.86
2019-01-10T14:38:01.659Z,89.86
2019-01-10T14:53:01.681Z,89.98
2019-01-10T15:08:01.725Z,90.06
2019-01-10T15:23:01.679Z,91.94
2019-01-10T15:38:03.943Z,93.32
2019-01-10T15:53:01.677Z,94.97
2019-01-10T16:03:01.670Z,95.41
2019-01-10T16:18:01.678Z,96.52
2019-01-10T16:33:01.453Z,97.4
2019-01-10T16:48:01.631Z,97.81
2019-01-10T16:53:01.598Z,97.87
2019-01-10T17:08:01.679Z,98.44
2019-01-10T17:23:02.906Z,99.0
2019-01-10T17:34:01.585Z,99.0
2019-01-10T17:49:01.596Z,99.0
2019-01-10T17:54:01.656Z,99.0
2019-01-10T18:09:01.694Z,99.0
2019-01-10T18:19:01.669Z,99.0
2019-01-10T18:34:02.113Z,99.0
2019-01-10T18:49:01.785Z,99.0
2019-01-10T19:04:01.725Z,99.0
2019-01-10T19:14:01.689Z,99.0
2019-01-10T19:29:01.792Z,99.0
2019-01-10T19:44:01.614Z,99.0
2019-01-10T19:59:01.650Z,99.0
2019-01-10T20:14:01.648Z,99.0
2019-01-10T20:29:01.721Z,99.0
2019-01-10T20:34:01.601Z,99.0
2019-01-10T20:49:01.590Z,99.0
2019-01-10T21:04:01.609Z,99.0
2019-01-10T21:09:01.604Z,99.0
2019-01-10T21:24:01.672Z,99.0
2019-01-10T21:29:01.675Z,99.0
2019-01-10T21:34:01.658Z,99.0
2019-01-10T21:49:01.655Z,99.0
2019-01-10T22:04:01.688Z,99.0
2019-01-10T22:14:01.660Z,99.0
2019-01-10T22:29:01.698Z,99.0
2019-01-10T22:44:01.597Z,99.0
2019-01-10T22:59:01.816Z,99.0
2019-01-10T23:09:01.605Z,99.0
2019-01-10T23:19:02.232Z,99.0
2019-01-10T23:24:01.579Z,99.0
2019-01-10T23:34:01.597Z,99.0
2019-01-10T23:44:01.636Z,99.0
2019-01-10T23:54:01.605Z,99.0
